createdAt,value
2022-07-26T00:00:05.551Z,2.28
2022-07-26T00:02:32.132Z,3.10
2022-07-26T00:04:58.774Z,2.20
2022-07-26T00:07:25.329Z,1.60
2022-07-26T00:09:51.846Z,2.38
2022-07-26T00:12:18.812Z,1.70
2022-07-26T00:14:45.338Z,2.10
2022-07-26T00:17:12.139Z,2.03
2022-07-26T00:19:38.646Z,2.17
2022-07-26T00:22:23.816Z,2.00
2022-07-26T00:24:50.417Z,1.83
2022-07-26T00:27:16.969Z,2.05
2022-07-26T00:29:43.691Z,2.47
2022-07-26T00:32:11.623Z,2.28
2022-07-26T00:34:38.224Z,2.03
2022-07-26T00:37:04.873Z,2.25
2022-07-26T00:39:31.553Z,1.90
2022-07-26T00:41:58.152Z,2.60
2022-07-26T00:44:24.765Z,2.45
2022-07-26T00:46:51.298Z,2.40
2022-07-26T00:49:18.056Z,2.47
2022-07-26T00:51:46.390Z,2.53
2022-07-26T00:54:13.373Z,2.53
2022-07-26T00:56:40.113Z,2.58
2022-07-26T00:59:06.951Z,2.25
2022-07-26T01:01:33.932Z,2.13
2022-07-26T01:04:00.710Z,2.30
2022-07-26T01:06:27.700Z,2.80
2022-07-26T01:08:54.763Z,2.90
2022-07-26T01:11:21.370Z,2.78
2022-07-26T01:13:49.226Z,3.25
2022-07-26T01:16:15.834Z,2.80
2022-07-26T01:18:42.661Z,2.47
2022-07-26T01:21:13.837Z,2.90
2022-07-26T01:23:41.929Z,2.70
2022-07-26T01:26:08.547Z,2.67
2022-07-26T01:28:39.929Z,2.88
2022-07-26T01:31:07.590Z,2.80
2022-07-26T01:33:34.620Z,2.75
2022-07-26T01:36:01.604Z,3.20
2022-07-26T01:38:28.555Z,2.80
2022-07-26T01:40:55.274Z,2.60
2022-07-26T01:43:21.835Z,3.38
2022-07-26T01:45:48.685Z,2.85
2022-07-26T01:48:15.442Z,2.75
2022-07-26T01:50:41.958Z,2.60
2022-07-26T01:53:08.500Z,3.22
2022-07-26T01:55:35.531Z,3.35
2022-07-26T01:58:03.161Z,3.20
2022-07-26T02:00:29.662Z,2.92
2022-07-26T02:02:56.328Z,2.60
2022-07-26T02:05:22.988Z,2.70
2022-07-26T02:07:49.736Z,2.70
2022-07-26T02:10:17.344Z,2.90
2022-07-26T02:12:44.471Z,3.17
2022-07-26T02:15:12.523Z,2.90
2022-07-26T02:17:39.108Z,2.92
2022-07-26T02:20:06.673Z,3.38
2022-07-26T02:22:33.208Z,3.03
2022-07-26T02:25:04.757Z,2.72
2022-07-26T02:27:32.272Z,2.80
2022-07-26T02:29:58.802Z,3.22
2022-07-26T02:32:25.291Z,2.53
2022-07-26T02:34:51.840Z,3.17
2022-07-26T02:37:18.436Z,2.90
2022-07-26T02:39:45.081Z,3.50
2022-07-26T02:42:11.586Z,3.30
2022-07-26T02:44:38.104Z,2.95
2022-07-26T02:47:04.735Z,3.05
2022-07-26T02:49:31.259Z,3.28
2022-07-26T02:51:57.847Z,3.80
2022-07-26T02:54:24.409Z,3.78
2022-07-26T02:56:50.907Z,3.05
2022-07-26T02:59:17.422Z,3.40
2022-07-26T03:01:44.010Z,3.50
2022-07-26T03:04:10.991Z,3.47
2022-07-26T03:06:37.909Z,3.20
2022-07-26T03:09:04.940Z,3.45
2022-07-26T03:11:31.468Z,3.63
2022-07-26T03:13:57.988Z,3.70
2022-07-26T03:16:29.041Z,3.10
2022-07-26T03:18:56.613Z,3.78
2022-07-26T03:21:23.218Z,4.28
2022-07-26T03:23:49.745Z,3.15
2022-07-26T03:26:16.352Z,3.85
2022-07-26T03:28:44.482Z,3.42
2022-07-26T03:31:11.899Z,3.70
2022-07-26T03:33:39.573Z,3.42
2022-07-26T03:36:07.063Z,3.47
2022-07-26T03:38:38.308Z,3.65
2022-07-26T03:41:04.869Z,3.95
2022-07-26T03:43:31.374Z,3.47
2022-07-26T03:46:03.131Z,4.43
2022-07-26T03:48:31.002Z,3.50
2022-07-26T03:50:57.695Z,3.65
2022-07-26T03:53:24.340Z,3.95
2022-07-26T03:56:10.387Z,4.20
2022-07-26T03:58:37.341Z,4.18
2022-07-26T04:01:04.119Z,3.53
2022-07-26T04:03:30.745Z,4.95
2022-07-26T04:05:57.712Z,4.53
2022-07-26T04:08:24.839Z,5.15
2022-07-26T04:10:51.541Z,4.65
2022-07-26T04:13:19.093Z,4.38
2022-07-26T04:15:45.720Z,4.07
2022-07-26T04:18:27.620Z,4.43
2022-07-26T04:20:54.242Z,5.03
2022-07-26T04:23:20.929Z,4.20
2022-07-26T04:25:47.468Z,4.60
2022-07-26T04:28:14.210Z,3.88
2022-07-26T04:30:41.079Z,4.25
2022-07-26T04:33:07.709Z,4.22
2022-07-26T04:35:34.392Z,4.00
2022-07-26T04:38:02.285Z,3.33
2022-07-26T04:40:33.361Z,3.42
2022-07-26T04:43:01.479Z,2.90
2022-07-26T04:45:28.755Z,2.72
2022-07-26T04:47:55.278Z,2.30
2022-07-26T04:50:22.774Z,2.33
2022-07-26T04:52:50.470Z,2.47
2022-07-26T04:55:17.840Z,1.83
2022-07-26T04:57:47.477Z,2.35
2022-07-26T05:00:21.746Z,1.60
2022-07-26T05:05:16.451Z,1.25
2022-07-26T05:07:48.039Z,1.80
2022-07-26T05:10:15.962Z,1.35
2022-07-26T05:12:42.701Z,1.08
2022-07-26T05:15:14.027Z,1.10
2022-07-26T05:17:43.095Z,1.27
2022-07-26T05:20:11.899Z,1.30
2022-07-26T05:22:38.984Z,0.80
2022-07-26T05:25:06.358Z,1.25
2022-07-26T05:27:33.164Z,1.15
2022-07-26T05:29:59.798Z,0.70
2022-07-26T05:32:28.067Z,1.33
2022-07-26T05:34:54.724Z,1.48
2022-07-26T05:37:21.236Z,1.10
2022-07-26T05:39:47.808Z,1.25
2022-07-26T05:42:14.322Z,1.48
2022-07-26T05:44:42.635Z,1.40
2022-07-26T05:47:09.634Z,1.20
2022-07-26T05:49:40.534Z,1.10
2022-07-26T05:52:08.274Z,1.40
2022-07-26T05:54:35.406Z,1.20
2022-07-26T05:57:02.009Z,1.35
2022-07-26T05:59:28.868Z,1.30
2022-07-26T06:01:56.719Z,1.45
2022-07-26T06:04:26.888Z,1.48
2022-07-26T06:06:55.132Z,1.35
2022-07-26T06:09:24.156Z,0.90
2022-07-26T06:11:51.063Z,1.00
2022-07-26T06:14:18.181Z,1.17
2022-07-26T06:16:45.855Z,1.02
2022-07-26T06:19:12.644Z,1.20
2022-07-26T06:21:39.259Z,1.60
2022-07-26T06:24:06.283Z,1.48
2022-07-26T06:26:33.140Z,1.60
2022-07-26T06:28:59.808Z,1.65
2022-07-26T06:31:26.370Z,1.60
2022-07-26T06:33:53.091Z,1.70
2022-07-26T06:36:19.611Z,1.55
2022-07-26T06:38:46.162Z,1.95
2022-07-26T06:41:15.703Z,1.65
2022-07-26T06:43:42.391Z,1.73
2022-07-26T06:46:08.948Z,2.22
2022-07-26T06:48:35.831Z,1.75
2022-07-26T06:51:03.463Z,1.80
2022-07-26T06:53:30.043Z,1.90
2022-07-26T06:55:56.589Z,1.67
2022-07-26T06:58:23.225Z,1.60
2022-07-26T07:00:49.842Z,1.60
2022-07-26T07:03:17.022Z,1.50
2022-07-26T07:05:48.038Z,2.05
2022-07-26T07:08:16.545Z,1.48
2022-07-26T07:10:44.668Z,1.30
2022-07-26T07:13:11.315Z,1.23
2022-07-26T07:15:37.859Z,1.60
2022-07-26T07:18:04.486Z,2.58
2022-07-26T07:20:31.127Z,1.73
2022-07-26T07:22:57.827Z,1.10
2022-07-26T07:25:30.447Z,1.20
2022-07-26T07:27:57.732Z,1.23
2022-07-26T07:30:24.286Z,1.25
2022-07-26T07:32:55.606Z,2.42
2022-07-26T07:35:23.491Z,1.25
2022-07-26T07:37:52.978Z,1.25
2022-07-26T07:40:21.835Z,1.30
2022-07-26T07:42:49.214Z,1.10
2022-07-26T07:45:15.789Z,1.05
2022-07-26T07:50:27.340Z,1.13
2022-07-26T07:52:55.170Z,1.23
2022-07-26T07:55:40.648Z,1.10
2022-07-26T07:58:10.158Z,1.10
2022-07-26T08:03:02.642Z,1.15
2022-07-26T08:05:29.155Z,1.67
2022-07-26T08:07:55.961Z,1.20
2022-07-26T08:10:22.839Z,1.50
2022-07-26T08:12:51.521Z,1.20
2022-07-26T08:15:19.366Z,1.02
2022-07-26T08:17:52.212Z,1.10
2022-07-26T08:22:51.753Z,1.08
2022-07-26T08:25:18.659Z,1.27
2022-07-26T08:30:11.217Z,0.70
2022-07-26T08:32:37.760Z,0.90
2022-07-26T08:35:17.876Z,0.60
2022-07-26T08:37:46.529Z,1.33
2022-07-26T08:40:13.287Z,0.90
2022-07-26T08:42:39.928Z,0.65
2022-07-26T08:45:07.033Z,1.02
2022-07-26T08:47:37.826Z,0.70
2022-07-26T08:50:07.576Z,0.93
2022-07-26T08:52:34.097Z,0.70
2022-07-26T08:55:00.656Z,0.68
2022-07-26T08:57:27.253Z,0.80
2022-07-26T09:00:16.496Z,1.13
2022-07-26T09:02:43.143Z,0.82
2022-07-26T09:07:50.415Z,0.95
2022-07-26T09:10:17.030Z,1.52
2022-07-26T09:12:43.952Z,1.42
2022-07-26T09:15:22.204Z,0.93
2022-07-26T09:20:24.364Z,1.55
2022-07-26T09:23:07.581Z,0.95
2022-07-26T09:25:36.209Z,0.95
2022-07-26T09:28:04.577Z,2.13
2022-07-26T09:30:32.157Z,1.60
2022-07-26T09:32:59.018Z,1.30
2022-07-26T09:40:39.920Z,1.30
2022-07-26T09:43:07.361Z,1.45
2022-07-26T09:45:36.836Z,1.42
2022-07-26T09:48:04.119Z,1.70
2022-07-26T09:50:32.196Z,1.15
2022-07-26T09:53:07.102Z,1.67
2022-07-26T09:58:14.643Z,1.60
2022-07-26T10:00:41.855Z,1.42
2022-07-26T10:03:08.635Z,1.20
2022-07-26T10:05:36.020Z,0.90
2022-07-26T10:08:03.087Z,1.95
2022-07-26T10:10:40.332Z,0.90
2022-07-26T10:13:08.126Z,1.17
2022-07-26T10:15:46.840Z,1.40
2022-07-26T10:18:39.241Z,1.27
2022-07-26T10:21:21.740Z,0.93
2022-07-26T10:24:10.573Z,0.98
2022-07-26T10:26:51.757Z,0.93
2022-07-26T10:29:18.198Z,0.88
2022-07-26T10:31:47.842Z,1.05
2022-07-26T10:34:30.663Z,0.90
2022-07-26T10:36:58.867Z,1.00
2022-07-26T10:39:25.665Z,1.08
2022-07-26T10:42:12.537Z,0.85
2022-07-26T10:44:47.337Z,0.93
2022-07-26T10:49:58.693Z,1.17
2022-07-26T10:52:27.872Z,1.48
2022-07-26T10:54:57.452Z,1.30
2022-07-26T10:57:28.402Z,1.10
2022-07-26T11:02:32.386Z,1.10
2022-07-26T11:05:01.066Z,1.23
2022-07-26T11:07:28.848Z,1.70
2022-07-26T11:09:59.464Z,1.25
2022-07-26T11:12:26.496Z,1.02
2022-07-26T11:14:54.274Z,1.38
2022-07-26T11:17:25.661Z,1.65
2022-07-26T11:19:52.539Z,1.83
2022-07-26T11:22:19.317Z,1.58
2022-07-26T11:24:45.917Z,1.30
2022-07-26T11:27:12.714Z,1.92
2022-07-26T11:29:41.025Z,1.45
2022-07-26T11:32:22.521Z,1.27
2022-07-26T11:35:00.131Z,1.52
2022-07-26T11:39:52.633Z,1.52
2022-07-26T11:42:21.481Z,1.55
2022-07-26T11:44:49.203Z,1.25
2022-07-26T11:47:16.938Z,1.45
2022-07-26T11:50:00.794Z,1.30
2022-07-26T11:52:31.520Z,1.40
2022-07-26T11:54:58.568Z,1.52
2022-07-26T11:57:29.917Z,1.42
2022-07-26T11:59:56.661Z,1.60
2022-07-26T12:02:23.383Z,1.23
2022-07-26T12:04:50.032Z,1.40
2022-07-26T12:07:20.155Z,1.50
2022-07-26T12:09:46.632Z,1.35
2022-07-26T12:12:21.733Z,1.50
2022-07-26T12:15:01.686Z,1.10
2022-07-26T12:17:35.335Z,1.27
2022-07-26T12:20:17.376Z,1.33
2022-07-26T12:23:13.445Z,1.40
2022-07-26T12:25:44.886Z,1.30
2022-07-26T12:28:13.425Z,1.65
2022-07-26T12:33:05.557Z,1.58
2022-07-26T12:35:35.715Z,1.80
2022-07-26T12:40:29.970Z,1.92
2022-07-26T12:43:02.752Z,1.45
2022-07-26T12:45:34.812Z,1.60
2022-07-26T12:50:31.397Z,1.35
2022-07-26T12:53:02.884Z,1.42
2022-07-26T12:55:29.498Z,1.40
2022-07-26T12:57:56.005Z,1.80
2022-07-26T13:00:24.329Z,2.00
2022-07-26T13:02:52.915Z,1.63
2022-07-26T13:05:19.532Z,1.75
2022-07-26T13:07:46.113Z,1.90
2022-07-26T13:12:38.854Z,1.55
2022-07-26T13:17:44.772Z,1.55
2022-07-26T13:20:11.375Z,1.52
2022-07-26T13:22:38.059Z,1.25
2022-07-26T13:25:08.509Z,1.67
2022-07-26T13:27:36.174Z,1.10
2022-07-26T13:30:05.160Z,1.50
2022-07-26T13:32:31.698Z,1.27
2022-07-26T13:34:58.260Z,1.27
2022-07-26T13:37:25.036Z,0.93
2022-07-26T13:39:51.595Z,1.63
2022-07-26T13:42:19.502Z,1.60
2022-07-26T13:44:46.106Z,1.50
2022-07-26T13:47:21.428Z,1.40
2022-07-26T13:49:48.142Z,1.60
2022-07-26T13:52:16.778Z,1.33
2022-07-26T13:57:09.082Z,1.30
2022-07-26T13:59:35.773Z,1.42
2022-07-26T14:02:04.787Z,1.63
2022-07-26T14:04:31.637Z,1.70
2022-07-26T14:06:58.282Z,1.40
2022-07-26T14:11:50.609Z,1.58
2022-07-26T14:16:51.579Z,1.25
2022-07-26T14:19:18.419Z,1.27
2022-07-26T14:21:48.918Z,0.95
2022-07-26T14:24:25.673Z,1.08
2022-07-26T14:26:55.404Z,1.13
2022-07-26T14:29:23.353Z,1.10
2022-07-26T14:31:50.043Z,1.20
2022-07-26T14:34:16.676Z,1.00
2022-07-26T14:36:43.225Z,1.10
2022-07-26T14:39:09.762Z,1.10
2022-07-26T14:41:36.780Z,1.33
2022-07-26T14:44:04.433Z,1.00
2022-07-26T14:46:31.101Z,1.08
2022-07-26T14:48:57.882Z,1.70
2022-07-26T14:51:24.976Z,1.65
2022-07-26T14:53:59.913Z,1.67
2022-07-26T14:56:26.464Z,1.10
2022-07-26T14:58:53.114Z,0.90
2022-07-26T15:01:19.887Z,1.17
2022-07-26T15:03:46.551Z,1.33
2022-07-26T15:06:13.298Z,1.23
2022-07-26T15:08:39.859Z,1.48
2022-07-26T15:11:06.480Z,1.98
2022-07-26T15:13:34.218Z,1.10
2022-07-26T15:16:00.839Z,1.40
2022-07-26T15:18:27.544Z,1.02
2022-07-26T15:20:54.129Z,1.50
2022-07-26T15:23:20.725Z,0.95
2022-07-26T15:25:48.636Z,1.10
2022-07-26T15:28:15.784Z,0.90
2022-07-26T15:30:42.643Z,1.60
2022-07-26T15:33:09.252Z,1.10
2022-07-26T15:35:37.122Z,1.40
2022-07-26T15:38:04.235Z,1.27
2022-07-26T15:40:30.793Z,1.52
2022-07-26T15:42:57.399Z,1.20
2022-07-26T15:45:25.062Z,1.00
2022-07-26T15:50:33.191Z,1.38
2022-07-26T15:53:07.829Z,1.30
2022-07-26T15:55:34.562Z,1.30
2022-07-26T15:58:01.215Z,1.00
2022-07-26T16:00:27.815Z,1.55
2022-07-26T16:02:54.576Z,1.13
2022-07-26T16:05:33.299Z,1.20
2022-07-26T16:07:59.846Z,1.63
2022-07-26T16:10:26.392Z,1.00
2022-07-26T16:12:52.982Z,1.05
2022-07-26T16:15:19.578Z,1.50
2022-07-26T16:17:46.525Z,1.50
2022-07-26T16:20:13.058Z,1.30
2022-07-26T16:22:41.674Z,1.13
2022-07-26T16:25:09.378Z,1.65
2022-07-26T16:27:35.942Z,1.70
2022-07-26T16:30:02.553Z,1.40
2022-07-26T16:32:29.087Z,1.65
2022-07-26T16:34:55.619Z,1.30
2022-07-26T16:37:22.321Z,2.00
2022-07-26T16:39:48.918Z,1.48
2022-07-26T16:42:15.469Z,0.85
2022-07-26T16:44:42.025Z,1.27
2022-07-26T16:47:12.616Z,1.15
2022-07-26T16:49:39.281Z,1.38
2022-07-26T16:52:05.903Z,1.33
2022-07-26T16:54:33.123Z,1.50
2022-07-26T16:57:00.340Z,1.08
2022-07-26T16:59:28.781Z,1.15
2022-07-26T17:01:55.478Z,1.40
2022-07-26T17:04:30.686Z,1.42
2022-07-26T17:07:23.462Z,1.00
2022-07-26T17:09:43.882Z,1.13
2022-07-26T17:12:10.394Z,1.20
2022-07-26T17:14:36.897Z,1.00
2022-07-26T17:17:03.443Z,0.88
2022-07-26T17:19:29.990Z,1.00
2022-07-26T17:21:56.545Z,0.90
2022-07-26T17:24:23.073Z,0.82
2022-07-26T17:26:49.663Z,1.30
2022-07-26T17:29:16.233Z,1.33
2022-07-26T17:31:42.791Z,0.90
2022-07-26T17:34:09.804Z,0.80
2022-07-26T17:36:37.096Z,1.02
2022-07-26T17:39:04.251Z,0.75
2022-07-26T17:41:33.090Z,0.65
2022-07-26T17:44:02.984Z,1.00
2022-07-26T17:46:32.512Z,1.00
2022-07-26T17:48:59.821Z,1.00
2022-07-26T17:51:26.408Z,1.23
2022-07-26T17:53:53.455Z,1.00
2022-07-26T17:56:20.051Z,1.10
2022-07-26T17:58:46.649Z,0.93
2022-07-26T18:01:13.226Z,1.23
2022-07-26T18:03:39.822Z,1.02
2022-07-26T18:06:06.745Z,1.00
2022-07-26T18:08:33.534Z,1.20
2022-07-26T18:11:00.773Z,1.05
2022-07-26T18:13:27.558Z,1.13
2022-07-26T18:15:54.216Z,1.15
2022-07-26T18:18:20.991Z,0.80
2022-07-26T18:20:47.641Z,1.30
2022-07-26T18:23:14.334Z,0.60
2022-07-26T18:25:41.336Z,1.80
2022-07-26T18:28:08.067Z,1.02
2022-07-26T18:30:35.062Z,0.90
2022-07-26T18:33:01.863Z,0.70
2022-07-26T18:35:28.543Z,1.00
2022-07-26T18:40:42.423Z,1.00
2022-07-26T18:43:09.086Z,1.00
2022-07-26T18:45:35.645Z,0.80
2022-07-26T18:48:02.241Z,1.42
2022-07-26T18:50:30.986Z,1.05
2022-07-26T18:52:59.451Z,1.10
2022-07-26T18:55:26.117Z,0.80
2022-07-26T18:57:52.967Z,1.00
2022-07-26T19:00:20.590Z,0.90
2022-07-26T19:02:47.662Z,1.05
2022-07-26T19:05:16.367Z,0.93
2022-07-26T19:07:43.606Z,1.23
2022-07-26T19:10:10.790Z,1.23
2022-07-26T19:12:37.498Z,1.42
2022-07-26T19:15:06.472Z,2.00
2022-07-26T19:17:33.492Z,1.20
2022-07-26T19:20:00.299Z,1.10
2022-07-26T19:22:26.894Z,1.27
2022-07-26T19:24:53.436Z,1.15
2022-07-26T19:27:20.145Z,1.00
2022-07-26T19:29:46.721Z,1.30
2022-07-26T19:32:13.270Z,1.00
2022-07-26T19:34:39.818Z,1.10
2022-07-26T19:37:06.471Z,1.10
2022-07-26T19:39:33.210Z,1.40
2022-07-26T19:41:59.790Z,0.90
2022-07-26T19:44:26.441Z,1.63
2022-07-26T19:46:57.243Z,1.73
2022-07-26T19:49:24.235Z,0.90
2022-07-26T19:51:50.814Z,0.98
2022-07-26T19:54:17.405Z,0.80
2022-07-26T19:56:43.940Z,1.00
2022-07-26T19:59:10.720Z,1.05
2022-07-26T20:01:37.572Z,1.20
2022-07-26T20:04:04.487Z,1.05
2022-07-26T20:06:31.067Z,1.02
2022-07-26T20:08:57.614Z,0.90
2022-07-26T20:11:24.986Z,1.35
2022-07-26T20:13:51.734Z,1.20
2022-07-26T20:16:18.311Z,1.08
2022-07-26T20:18:45.004Z,1.10
2022-07-26T20:21:11.536Z,1.45
2022-07-26T20:23:38.128Z,1.23
2022-07-26T20:26:04.638Z,0.82
2022-07-26T20:28:31.317Z,1.05
2022-07-26T20:30:58.085Z,1.00
2022-07-26T20:33:25.418Z,0.98
2022-07-26T20:35:55.084Z,0.95
2022-07-26T20:38:22.595Z,0.90
2022-07-26T20:40:49.152Z,1.30
2022-07-26T20:43:17.185Z,1.10
2022-07-26T20:45:44.432Z,1.00
2022-07-26T20:48:11.033Z,1.00
2022-07-26T20:50:38.317Z,2.10
2022-07-26T20:53:04.931Z,1.00
2022-07-26T20:58:11.217Z,1.20
2022-07-26T21:00:37.840Z,1.08
2022-07-26T21:03:04.490Z,1.65
2022-07-26T21:05:32.704Z,0.90
2022-07-26T21:07:59.944Z,0.88
2022-07-26T21:10:29.055Z,1.02
2022-07-26T21:12:57.470Z,1.38
2022-07-26T21:15:31.292Z,0.93
2022-07-26T21:17:58.592Z,1.10
2022-07-26T21:20:25.208Z,0.80
2022-07-26T21:22:51.832Z,1.23
2022-07-26T21:25:19.463Z,1.10
2022-07-26T21:27:46.030Z,0.98
2022-07-26T21:32:53.442Z,1.00
2022-07-26T21:35:20.522Z,0.75
2022-07-26T21:37:47.118Z,0.90
2022-07-26T21:40:13.875Z,1.10
2022-07-26T21:42:40.565Z,1.08
2022-07-26T21:45:07.538Z,1.30
2022-07-26T21:47:34.218Z,1.45
2022-07-26T21:50:00.764Z,1.20
2022-07-26T21:52:27.387Z,2.55
2022-07-26T21:55:04.336Z,3.25
2022-07-26T21:57:30.873Z,3.40
2022-07-26T21:59:57.584Z,3.22
2022-07-26T22:02:24.157Z,2.85
2022-07-26T22:04:50.695Z,2.85
2022-07-26T22:07:17.222Z,2.60
2022-07-26T22:09:43.754Z,2.55
2022-07-26T22:12:10.737Z,1.60
2022-07-26T22:14:37.307Z,2.35
2022-07-26T22:17:03.925Z,2.05
2022-07-26T22:19:30.502Z,2.17
2022-07-26T22:21:57.095Z,1.50
2022-07-26T22:24:23.687Z,1.40
2022-07-26T22:26:50.321Z,1.70
2022-07-26T22:29:16.850Z,1.60
2022-07-26T22:31:43.448Z,1.40
2022-07-26T22:34:10.098Z,1.52
2022-07-26T22:36:37.179Z,1.40
2022-07-26T22:39:05.500Z,1.10
2022-07-26T22:41:51.467Z,1.48
2022-07-26T22:44:22.277Z,1.40
2022-07-26T22:46:49.080Z,1.30
2022-07-26T22:49:15.721Z,1.20
2022-07-26T22:51:42.425Z,1.02
2022-07-26T22:54:08.972Z,1.30
2022-07-26T22:56:35.541Z,1.05
2022-07-26T22:59:02.052Z,1.20
2022-07-26T23:01:29.018Z,1.38
2022-07-26T23:03:56.290Z,1.85
2022-07-26T23:06:31.481Z,2.03
2022-07-26T23:08:58.834Z,1.30
2022-07-26T23:11:25.374Z,1.17
2022-07-26T23:13:51.993Z,1.90
2022-07-26T23:16:26.018Z,0.93
2022-07-26T23:18:52.800Z,1.15
2022-07-26T23:21:19.328Z,1.50
2022-07-26T23:23:45.878Z,1.40
2022-07-26T23:26:12.417Z,1.38
2022-07-26T23:28:38.984Z,1.30
2022-07-26T23:31:07.845Z,0.90
2022-07-26T23:33:51.414Z,1.00
2022-07-26T23:36:22.172Z,1.38
2022-07-26T23:38:48.760Z,1.50
2022-07-26T23:41:15.411Z,0.98
2022-07-26T23:43:41.953Z,1.67
2022-07-26T23:46:08.557Z,1.38
2022-07-26T23:48:35.160Z,1.30
2022-07-26T23:51:01.854Z,1.42
2022-07-26T23:53:28.374Z,1.50
2022-07-26T23:55:54.922Z,1.55
2022-07-26T23:58:21.732Z,1.10
